sensor_id;sensor_type;location;lat;lon;timestamp;P1;durP1;ratioP1;P2;durP2;ratioP2
78929;SDS011;68329;47.664;9.356;2023-03-03T00:00:13;7.00;;;5.97;;
78929;SDS011;68329;47.664;9.356;2023-03-03T00:05:06;7.10;;;5.68;;
78929;SDS011;68329;47.664;9.356;2023-03-03T00:07:32;7.07;;;6.00;;
78929;SDS011;68329;47.664;9.356;2023-03-03T00:09:58;7.05;;;6.35;;
78929;SDS011;68329;47.664;9.356;2023-03-03T00:12:27;8.98;;;5.78;;
78929;SDS011;68329;47.664;9.356;2023-03-03T00:14:53;6.90;;;5.70;;
78929;SDS011;68329;47.664;9.356;2023-03-03T00:17:21;6.43;;;5.38;;
78929;SDS011;68329;47.664;9.356;2023-03-03T00:19:48;6.97;;;6.07;;
78929;SDS011;68329;47.664;9.356;2023-03-03T00:22:24;6.70;;;5.75;;
78929;SDS011;68329;47.664;9.356;2023-03-03T00:24:51;6.53;;;5.80;;
78929;SDS011;68329;47.664;9.356;2023-03-03T00:27:30;6.80;;;5.30;;
78929;SDS011;68329;47.664;9.356;2023-03-03T00:30:00;6.40;;;5.55;;
78929;SDS011;68329;47.664;9.356;2023-03-03T00:34:53;6.78;;;5.60;;
78929;SDS011;68329;47.664;9.356;2023-03-03T00:37:32;6.47;;;5.60;;
78929;SDS011;68329;47.664;9.356;2023-03-03T00:40:44;6.93;;;6.10;;
78929;SDS011;68329;47.664;9.356;2023-03-03T00:42:48;6.22;;;5.57;;
78929;SDS011;68329;47.664;9.356;2023-03-03T00:45:32;7.30;;;5.65;;
78929;SDS011;68329;47.664;9.356;2023-03-03T00:48:06;6.47;;;5.47;;
78929;SDS011;68329;47.664;9.356;2023-03-03T00:50:34;6.68;;;5.35;;
78929;SDS011;68329;47.664;9.356;2023-03-03T00:53:14;6.35;;;5.63;;
78929;SDS011;68329;47.664;9.356;2023-03-03T00:55:44;6.03;;;5.38;;
78929;SDS011;68329;47.664;9.356;2023-03-03T00:58:10;6.65;;;5.53;;
78929;SDS011;68329;47.664;9.356;2023-03-03T01:00:36;6.15;;;5.55;;
78929;SDS011;68329;47.664;9.356;2023-03-03T01:03:04;6.10;;;5.43;;
78929;SDS011;68329;47.664;9.356;2023-03-03T01:05:30;6.53;;;5.70;;
78929;SDS011;68329;47.664;9.356;2023-03-03T01:07:56;6.50;;;5.68;;
78929;SDS011;68329;47.664;9.356;2023-03-03T01:10:23;5.70;;;5.15;;
78929;SDS011;68329;47.664;9.356;2023-03-03T01:12:49;6.40;;;5.70;;
78929;SDS011;68329;47.664;9.356;2023-03-03T01:15:15;6.88;;;5.43;;
78929;SDS011;68329;47.664;9.356;2023-03-03T01:17:41;6.43;;;5.40;;
78929;SDS011;68329;47.664;9.356;2023-03-03T01:20:09;5.78;;;5.00;;
78929;SDS011;68329;47.664;9.356;2023-03-03T01:22:35;6.82;;;5.63;;
78929;SDS011;68329;47.664;9.356;2023-03-03T01:25:01;6.38;;;5.47;;
78929;SDS011;68329;47.664;9.356;2023-03-03T01:27:28;7.55;;;5.68;;
78929;SDS011;68329;47.664;9.356;2023-03-03T01:29:54;5.68;;;5.05;;
78929;SDS011;68329;47.664;9.356;2023-03-03T01:32:20;5.95;;;5.25;;
78929;SDS011;68329;47.664;9.356;2023-03-03T01:34:46;6.03;;;5.18;;
78929;SDS011;68329;47.664;9.356;2023-03-03T01:39:39;5.60;;;5.00;;
78929;SDS011;68329;47.664;9.356;2023-03-03T01:42:05;6.63;;;5.60;;
78929;SDS011;68329;47.664;9.356;2023-03-03T01:44:32;5.95;;;5.35;;
78929;SDS011;68329;47.664;9.356;2023-03-03T01:49:50;5.68;;;5.05;;
78929;SDS011;68329;47.664;9.356;2023-03-03T01:52:21;6.63;;;5.63;;
78929;SDS011;68329;47.664;9.356;2023-03-03T01:54:49;6.00;;;5.15;;
78929;SDS011;68329;47.664;9.356;2023-03-03T01:57:18;6.40;;;5.80;;
78929;SDS011;68329;47.664;9.356;2023-03-03T01:59:46;6.38;;;5.50;;
78929;SDS011;68329;47.664;9.356;2023-03-03T02:02:14;6.32;;;5.32;;
78929;SDS011;68329;47.664;9.356;2023-03-03T02:07:08;5.63;;;5.03;;
78929;SDS011;68329;47.664;9.356;2023-03-03T02:12:17;6.13;;;5.53;;
78929;SDS011;68329;47.664;9.356;2023-03-03T02:14:44;5.90;;;5.30;;
78929;SDS011;68329;47.664;9.356;2023-03-03T02:17:10;5.70;;;5.13;;
78929;SDS011;68329;47.664;9.356;2023-03-03T02:22:02;5.40;;;4.38;;
78929;SDS011;68329;47.664;9.356;2023-03-03T02:26:57;5.80;;;4.82;;
78929;SDS011;68329;47.664;9.356;2023-03-03T02:29:24;5.47;;;4.85;;
78929;SDS011;68329;47.664;9.356;2023-03-03T02:31:50;5.25;;;4.68;;
78929;SDS011;68329;47.664;9.356;2023-03-03T02:34:16;6.80;;;5.00;;
78929;SDS011;68329;47.664;9.356;2023-03-03T02:36:42;5.85;;;5.25;;
78929;SDS011;68329;47.664;9.356;2023-03-03T02:41:35;5.55;;;5.03;;
78929;SDS011;68329;47.664;9.356;2023-03-03T02:44:08;5.20;;;4.57;;
78929;SDS011;68329;47.664;9.356;2023-03-03T02:46:36;5.60;;;4.97;;
78929;SDS011;68329;47.664;9.356;2023-03-03T02:49:02;6.22;;;4.95;;
78929;SDS011;68329;47.664;9.356;2023-03-03T02:51:29;5.90;;;4.97;;
78929;SDS011;68329;47.664;9.356;2023-03-03T02:53:55;5.30;;;4.68;;
78929;SDS011;68329;47.664;9.356;2023-03-03T02:56:21;6.00;;;4.90;;
78929;SDS011;68329;47.664;9.356;2023-03-03T02:58:47;5.53;;;5.03;;
78929;SDS011;68329;47.664;9.356;2023-03-03T03:01:13;5.32;;;4.82;;
78929;SDS011;68329;47.664;9.356;2023-03-03T03:03:39;6.15;;;4.90;;
78929;SDS011;68329;47.664;9.356;2023-03-03T03:06:06;5.57;;;4.90;;
78929;SDS011;68329;47.664;9.356;2023-03-03T03:08:32;5.53;;;4.50;;
78929;SDS011;68329;47.664;9.356;2023-03-03T03:10:58;5.25;;;4.75;;
78929;SDS011;68329;47.664;9.356;2023-03-03T03:13:24;5.18;;;4.68;;
78929;SDS011;68329;47.664;9.356;2023-03-03T03:18:16;5.00;;;4.50;;
78929;SDS011;68329;47.664;9.356;2023-03-03T03:23:08;6.18;;;5.07;;
78929;SDS011;68329;47.664;9.356;2023-03-03T03:28:06;5.07;;;4.45;;
78929;SDS011;68329;47.664;9.356;2023-03-03T03:30:34;5.97;;;4.63;;
78929;SDS011;68329;47.664;9.356;2023-03-03T03:33:00;5.03;;;4.53;;
78929;SDS011;68329;47.664;9.356;2023-03-03T03:35:26;5.53;;;4.65;;
78929;SDS011;68329;47.664;9.356;2023-03-03T03:37:52;5.30;;;4.80;;
78929;SDS011;68329;47.664;9.356;2023-03-03T03:40:18;5.50;;;4.70;;
78929;SDS011;68329;47.664;9.356;2023-03-03T03:42:44;5.20;;;4.70;;
78929;SDS011;68329;47.664;9.356;2023-03-03T03:47:39;4.82;;;4.35;;
78929;SDS011;68329;47.664;9.356;2023-03-03T03:50:05;6.07;;;4.38;;
78929;SDS011;68329;47.664;9.356;2023-03-03T03:52:31;4.82;;;4.43;;
78929;SDS011;68329;47.664;9.356;2023-03-03T03:54:57;5.45;;;4.80;;
78929;SDS011;68329;47.664;9.356;2023-03-03T03:57:23;5.35;;;4.63;;
78929;SDS011;68329;47.664;9.356;2023-03-03T03:59:49;5.30;;;4.80;;
78929;SDS011;68329;47.664;9.356;2023-03-03T04:02:15;5.30;;;4.57;;
78929;SDS011;68329;47.664;9.356;2023-03-03T04:04:41;5.18;;;4.35;;
78929;SDS011;68329;47.664;9.356;2023-03-03T04:07:07;4.95;;;4.45;;
78929;SDS011;68329;47.664;9.356;2023-03-03T04:09:33;5.72;;;4.50;;
78929;SDS011;68329;47.664;9.356;2023-03-03T04:11:59;5.28;;;4.78;;
78929;SDS011;68329;47.664;9.356;2023-03-03T04:14:26;5.15;;;4.65;;
78929;SDS011;68329;47.664;9.356;2023-03-03T04:16:52;5.30;;;4.80;;
78929;SDS011;68329;47.664;9.356;2023-03-03T04:19:18;4.88;;;4.47;;
78929;SDS011;68329;47.664;9.356;2023-03-03T04:21:44;5.93;;;5.15;;
78929;SDS011;68329;47.664;9.356;2023-03-03T04:24:10;4.93;;;4.28;;
78929;SDS011;68329;47.664;9.356;2023-03-03T04:26:36;4.95;;;4.45;;
78929;SDS011;68329;47.664;9.356;2023-03-03T04:29:02;5.57;;;4.60;;
78929;SDS011;68329;47.664;9.356;2023-03-03T04:33:54;4.80;;;4.28;;
78929;SDS011;68329;47.664;9.356;2023-03-03T04:36:20;5.90;;;4.50;;
78929;SDS011;68329;47.664;9.356;2023-03-03T04:41:13;4.78;;;4.35;;
78929;SDS011;68329;47.664;9.356;2023-03-03T04:43:39;5.15;;;4.57;;
78929;SDS011;68329;47.664;9.356;2023-03-03T04:46:05;4.93;;;4.50;;
78929;SDS011;68329;47.664;9.356;2023-03-03T04:48:31;4.75;;;4.25;;
78929;SDS011;68329;47.664;9.356;2023-03-03T04:50:57;4.90;;;4.40;;
78929;SDS011;68329;47.664;9.356;2023-03-03T04:53:23;5.53;;;4.28;;
78929;SDS011;68329;47.664;9.356;2023-03-03T04:55:52;4.55;;;4.13;;
78929;SDS011;68329;47.664;9.356;2023-03-03T04:58:18;5.20;;;4.32;;
78929;SDS011;68329;47.664;9.356;2023-03-03T05:00:46;4.38;;;3.97;;
78929;SDS011;68329;47.664;9.356;2023-03-03T05:03:12;4.65;;;4.13;;
78929;SDS011;68329;47.664;9.356;2023-03-03T05:05:39;4.13;;;3.72;;
78929;SDS011;68329;47.664;9.356;2023-03-03T05:08:05;4.43;;;4.03;;
78929;SDS011;68329;47.664;9.356;2023-03-03T05:10:31;4.90;;;4.40;;
78929;SDS011;68329;47.664;9.356;2023-03-03T05:12:57;4.82;;;4.32;;
78929;SDS011;68329;47.664;9.356;2023-03-03T05:15:23;4.82;;;4.25;;
78929;SDS011;68329;47.664;9.356;2023-03-03T05:17:49;4.90;;;4.40;;
78929;SDS011;68329;47.664;9.356;2023-03-03T05:20:17;4.70;;;4.03;;
78929;SDS011;68329;47.664;9.356;2023-03-03T05:22:43;4.47;;;4.07;;
78929;SDS011;68329;47.664;9.356;2023-03-03T05:25:09;5.40;;;4.90;;
78929;SDS011;68329;47.664;9.356;2023-03-03T05:27:36;4.88;;;4.38;;
78929;SDS011;68329;47.664;9.356;2023-03-03T05:30:02;5.90;;;4.75;;
78929;SDS011;68329;47.664;9.356;2023-03-03T05:32:28;5.43;;;4.65;;
78929;SDS011;68329;47.664;9.356;2023-03-03T05:34:54;4.90;;;4.40;;
78929;SDS011;68329;47.664;9.356;2023-03-03T05:37:20;4.85;;;4.45;;
78929;SDS011;68329;47.664;9.356;2023-03-03T05:39:48;5.05;;;4.53;;
78929;SDS011;68329;47.664;9.356;2023-03-03T05:42:14;5.57;;;4.40;;
78929;SDS011;68329;47.664;9.356;2023-03-03T05:44:40;4.20;;;3.83;;
78929;SDS011;68329;47.664;9.356;2023-03-03T05:47:06;4.88;;;4.32;;
78929;SDS011;68329;47.664;9.356;2023-03-03T05:49:32;5.00;;;4.53;;
78929;SDS011;68329;47.664;9.356;2023-03-03T05:51:58;5.00;;;4.50;;
78929;SDS011;68329;47.664;9.356;2023-03-03T05:54:24;5.28;;;4.78;;
78929;SDS011;68329;47.664;9.356;2023-03-03T05:56:50;5.63;;;4.35;;
78929;SDS011;68329;47.664;9.356;2023-03-03T05:59:17;4.57;;;4.10;;
78929;SDS011;68329;47.664;9.356;2023-03-03T06:01:43;4.93;;;4.35;;
78929;SDS011;68329;47.664;9.356;2023-03-03T06:04:09;4.68;;;4.10;;
78929;SDS011;68329;47.664;9.356;2023-03-03T06:06:35;4.90;;;4.50;;
78929;SDS011;68329;47.664;9.356;2023-03-03T06:09:02;4.70;;;4.20;;
78929;SDS011;68329;47.664;9.356;2023-03-03T06:13:54;4.25;;;3.85;;
78929;SDS011;68329;47.664;9.356;2023-03-03T06:16:20;4.28;;;3.83;;
78929;SDS011;68329;47.664;9.356;2023-03-03T06:18:46;5.03;;;4.25;;
78929;SDS011;68329;47.664;9.356;2023-03-03T06:21:12;4.90;;;4.40;;
78929;SDS011;68329;47.664;9.356;2023-03-03T06:23:38;5.30;;;4.15;;
78929;SDS011;68329;47.664;9.356;2023-03-03T06:26:04;4.28;;;3.88;;
78929;SDS011;68329;47.664;9.356;2023-03-03T06:28:30;4.28;;;3.88;;
78929;SDS011;68329;47.664;9.356;2023-03-03T06:30:56;4.88;;;4.38;;
78929;SDS011;68329;47.664;9.356;2023-03-03T06:33:22;4.65;;;4.22;;
78929;SDS011;68329;47.664;9.356;2023-03-03T06:35:49;4.72;;;4.32;;
78929;SDS011;68329;47.664;9.356;2023-03-03T06:38:15;5.38;;;3.88;;
78929;SDS011;68329;47.664;9.356;2023-03-03T06:40:41;5.03;;;4.53;;
78929;SDS011;68329;47.664;9.356;2023-03-03T06:43:07;4.63;;;4.13;;
78929;SDS011;68329;47.664;9.356;2023-03-03T06:47:59;4.53;;;3.97;;
78929;SDS011;68329;47.664;9.356;2023-03-03T06:50:26;4.38;;;3.88;;
78929;SDS011;68329;47.664;9.356;2023-03-03T06:55:20;5.07;;;3.70;;
78929;SDS011;68329;47.664;9.356;2023-03-03T06:57:47;4.63;;;4.18;;
78929;SDS011;68329;47.664;9.356;2023-03-03T07:02:39;4.50;;;4.10;;
78929;SDS011;68329;47.664;9.356;2023-03-03T07:05:06;5.45;;;4.00;;
78929;SDS011;68329;47.664;9.356;2023-03-03T07:07:35;4.57;;;4.18;;
78929;SDS011;68329;47.664;9.356;2023-03-03T07:10:05;4.18;;;3.78;;
78929;SDS011;68329;47.664;9.356;2023-03-03T07:12:32;5.20;;;3.72;;
78929;SDS011;68329;47.664;9.356;2023-03-03T07:17:26;4.38;;;3.97;;
78929;SDS011;68329;47.664;9.356;2023-03-03T07:22:19;5.13;;;3.80;;
78929;SDS011;68329;47.664;9.356;2023-03-03T07:24:46;4.57;;;4.00;;
78929;SDS011;68329;47.664;9.356;2023-03-03T07:29:48;4.95;;;3.90;;
78929;SDS011;68329;47.664;9.356;2023-03-03T07:34:45;4.60;;;4.00;;
78929;SDS011;68329;47.664;9.356;2023-03-03T07:37:15;4.55;;;4.03;;
78929;SDS011;68329;47.664;9.356;2023-03-03T07:39:43;4.35;;;3.95;;
78929;SDS011;68329;47.664;9.356;2023-03-03T07:44:38;4.20;;;3.80;;
78929;SDS011;68329;47.664;9.356;2023-03-03T07:47:12;4.50;;;4.10;;
78929;SDS011;68329;47.664;9.356;2023-03-03T07:49:40;3.83;;;3.53;;
78929;SDS011;68329;47.664;9.356;2023-03-03T07:52:22;4.35;;;3.95;;
78929;SDS011;68329;47.664;9.356;2023-03-03T07:54:50;4.45;;;3.88;;
78929;SDS011;68329;47.664;9.356;2023-03-03T07:59:46;4.55;;;4.00;;
78929;SDS011;68329;47.664;9.356;2023-03-03T08:02:24;4.10;;;3.70;;
78929;SDS011;68329;47.664;9.356;2023-03-03T08:04:53;4.80;;;4.30;;
78929;SDS011;68329;47.664;9.356;2023-03-03T08:07:20;5.40;;;4.90;;
78929;SDS011;68329;47.664;9.356;2023-03-03T08:12:23;4.65;;;4.20;;
78929;SDS011;68329;47.664;9.356;2023-03-03T08:14:52;5.28;;;4.43;;
78929;SDS011;68329;47.664;9.356;2023-03-03T08:17:26;5.10;;;4.50;;
78929;SDS011;68329;47.664;9.356;2023-03-03T08:19:59;4.78;;;4.30;;
78929;SDS011;68329;47.664;9.356;2023-03-03T08:22:30;4.55;;;4.15;;
78929;SDS011;68329;47.664;9.356;2023-03-03T08:24:56;5.60;;;5.00;;
78929;SDS011;68329;47.664;9.356;2023-03-03T08:27:22;5.38;;;4.57;;
78929;SDS011;68329;47.664;9.356;2023-03-03T08:29:48;7.03;;;4.97;;
78929;SDS011;68329;47.664;9.356;2023-03-03T08:32:14;5.88;;;4.75;;
78929;SDS011;68329;47.664;9.356;2023-03-03T08:34:40;5.30;;;4.10;;
78929;SDS011;68329;47.664;9.356;2023-03-03T08:37:06;7.15;;;4.50;;
78929;SDS011;68329;47.664;9.356;2023-03-03T08:39:32;6.38;;;4.90;;
78929;SDS011;68329;47.664;9.356;2023-03-03T08:41:58;6.28;;;4.53;;
78929;SDS011;68329;47.664;9.356;2023-03-03T08:44:24;7.38;;;5.00;;
78929;SDS011;68329;47.664;9.356;2023-03-03T08:46:50;6.72;;;4.78;;
78929;SDS011;68329;47.664;9.356;2023-03-03T08:49:16;7.15;;;5.03;;
78929;SDS011;68329;47.664;9.356;2023-03-03T08:51:42;7.28;;;4.80;;
78929;SDS011;68329;47.664;9.356;2023-03-03T08:54:08;36.15;;;23.40;;
78929;SDS011;68329;47.664;9.356;2023-03-03T08:56:34;14.40;;;10.85;;
78929;SDS011;68329;47.664;9.356;2023-03-03T08:59:00;20.02;;;12.73;;
78929;SDS011;68329;47.664;9.356;2023-03-03T09:01:26;13.82;;;9.95;;
78929;SDS011;68329;47.664;9.356;2023-03-03T09:03:52;17.48;;;10.13;;
78929;SDS011;68329;47.664;9.356;2023-03-03T09:06:18;12.35;;;8.80;;
78929;SDS011;68329;47.664;9.356;2023-03-03T09:08:44;12.23;;;8.68;;
78929;SDS011;68329;47.664;9.356;2023-03-03T09:11:11;12.52;;;7.53;;
78929;SDS011;68329;47.664;9.356;2023-03-03T09:13:37;12.77;;;7.90;;
78929;SDS011;68329;47.664;9.356;2023-03-03T09:16:09;9.50;;;6.80;;
78929;SDS011;68329;47.664;9.356;2023-03-03T09:18:37;10.02;;;6.40;;
78929;SDS011;68329;47.664;9.356;2023-03-03T09:21:22;10.35;;;7.10;;
78929;SDS011;68329;47.664;9.356;2023-03-03T09:23:53;14.38;;;7.10;;
78929;SDS011;68329;47.664;9.356;2023-03-03T09:26:30;9.10;;;6.35;;
78929;SDS011;68329;47.664;9.356;2023-03-03T09:34:15;9.73;;;6.15;;
78929;SDS011;68329;47.664;9.356;2023-03-03T09:36:41;10.57;;;6.93;;
78929;SDS011;68329;47.664;9.356;2023-03-03T09:39:17;13.82;;;6.15;;
78929;SDS011;68329;47.664;9.356;2023-03-03T09:49:33;10.57;;;5.95;;
78929;SDS011;68329;47.664;9.356;2023-03-03T09:52:02;9.30;;;5.90;;
78929;SDS011;68329;47.664;9.356;2023-03-03T09:54:46;9.07;;;5.72;;
78929;SDS011;68329;47.664;9.356;2023-03-03T09:57:28;8.90;;;6.00;;
78929;SDS011;68329;47.664;9.356;2023-03-03T10:02:37;8.10;;;5.82;;
78929;SDS011;68329;47.664;9.356;2023-03-03T10:05:18;18.88;;;8.27;;
78929;SDS011;68329;47.664;9.356;2023-03-03T10:15:42;23.70;;;11.68;;
78929;SDS011;68329;47.664;9.356;2023-03-03T10:18:18;25.60;;;11.27;;
78929;SDS011;68329;47.664;9.356;2023-03-03T10:23:18;25.00;;;11.23;;
78929;SDS011;68329;47.664;9.356;2023-03-03T10:28:28;25.80;;;10.38;;
78929;SDS011;68329;47.664;9.356;2023-03-03T10:33:48;21.58;;;11.13;;
78929;SDS011;68329;47.664;9.356;2023-03-03T10:41:42;19.95;;;9.98;;
78929;SDS011;68329;47.664;9.356;2023-03-03T10:46:54;19.02;;;9.20;;
78929;SDS011;68329;47.664;9.356;2023-03-03T11:02:33;37.78;;;22.85;;
78929;SDS011;68329;47.664;9.356;2023-03-03T11:07:51;24.05;;;14.35;;
78929;SDS011;68329;47.664;9.356;2023-03-03T11:13:01;21.52;;;13.45;;
78929;SDS011;68329;47.664;9.356;2023-03-03T11:15:46;19.85;;;12.52;;
78929;SDS011;68329;47.664;9.356;2023-03-03T11:18:22;18.63;;;12.05;;
78929;SDS011;68329;47.664;9.356;2023-03-03T11:21:06;16.67;;;11.27;;
78929;SDS011;68329;47.664;9.356;2023-03-03T11:31:31;16.48;;;9.85;;
78929;SDS011;68329;47.664;9.356;2023-03-03T11:39:04;13.32;;;8.43;;
78929;SDS011;68329;47.664;9.356;2023-03-03T11:41:40;11.95;;;8.13;;
78929;SDS011;68329;47.664;9.356;2023-03-03T11:49:41;11.77;;;7.53;;
78929;SDS011;68329;47.664;9.356;2023-03-03T11:52:20;9.93;;;7.53;;
78929;SDS011;68329;47.664;9.356;2023-03-03T11:54:49;10.15;;;7.53;;
78929;SDS011;68329;47.664;9.356;2023-03-03T11:59:52;10.57;;;7.18;;
78929;SDS011;68329;47.664;9.356;2023-03-03T12:02:27;10.68;;;7.50;;
78929;SDS011;68329;47.664;9.356;2023-03-03T12:05:08;9.15;;;6.88;;
78929;SDS011;68329;47.664;9.356;2023-03-03T12:12:50;38.25;;;20.27;;
78929;SDS011;68329;47.664;9.356;2023-03-03T12:15:37;32.88;;;18.30;;
78929;SDS011;68329;47.664;9.356;2023-03-03T12:33:35;21.38;;;12.32;;
78929;SDS011;68329;47.664;9.356;2023-03-03T12:41:13;17.88;;;10.77;;
78929;SDS011;68329;47.664;9.356;2023-03-03T12:43:43;16.98;;;10.65;;
78929;SDS011;68329;47.664;9.356;2023-03-03T12:48:54;19.83;;;11.48;;
78929;SDS011;68329;47.664;9.356;2023-03-03T12:51:25;18.60;;;11.60;;
78929;SDS011;68329;47.664;9.356;2023-03-03T12:57:02;21.02;;;10.80;;
78929;SDS011;68329;47.664;9.356;2023-03-03T13:02:06;17.00;;;10.02;;
78929;SDS011;68329;47.664;9.356;2023-03-03T13:04:50;18.73;;;10.10;;
78929;SDS011;68329;47.664;9.356;2023-03-03T13:10:04;15.60;;;9.45;;
78929;SDS011;68329;47.664;9.356;2023-03-03T13:12:52;16.30;;;9.73;;
78929;SDS011;68329;47.664;9.356;2023-03-03T13:15:46;20.63;;;10.82;;
78929;SDS011;68329;47.664;9.356;2023-03-03T13:25:44;18.17;;;10.18;;
78929;SDS011;68329;47.664;9.356;2023-03-03T13:28:33;18.23;;;9.68;;
78929;SDS011;68329;47.664;9.356;2023-03-03T13:31:00;26.17;;;14.15;;
78929;SDS011;68329;47.664;9.356;2023-03-03T13:33:28;19.08;;;11.40;;
78929;SDS011;68329;47.664;9.356;2023-03-03T13:36:02;19.17;;;11.00;;
78929;SDS011;68329;47.664;9.356;2023-03-03T13:38:31;18.20;;;10.95;;
78929;SDS011;68329;47.664;9.356;2023-03-03T13:43:49;14.77;;;9.48;;
78929;SDS011;68329;47.664;9.356;2023-03-03T13:46:15;14.45;;;9.07;;
78929;SDS011;68329;47.664;9.356;2023-03-03T13:48:49;12.95;;;8.52;;
78929;SDS011;68329;47.664;9.356;2023-03-03T13:53:56;13.95;;;8.98;;
78929;SDS011;68329;47.664;9.356;2023-03-03T14:07:10;11.55;;;8.27;;
78929;SDS011;68329;47.664;9.356;2023-03-03T14:14:51;14.90;;;9.07;;
78929;SDS011;68329;47.664;9.356;2023-03-03T14:17:41;14.30;;;8.77;;
78929;SDS011;68329;47.664;9.356;2023-03-03T14:22:52;13.77;;;8.10;;
78929;SDS011;68329;47.664;9.356;2023-03-03T14:25:19;13.10;;;7.68;;
78929;SDS011;68329;47.664;9.356;2023-03-03T14:38:13;12.05;;;7.53;;
78929;SDS011;68329;47.664;9.356;2023-03-03T14:40:40;12.85;;;8.23;;
78929;SDS011;68329;47.664;9.356;2023-03-03T14:43:21;12.60;;;8.32;;
78929;SDS011;68329;47.664;9.356;2023-03-03T14:45:48;10.95;;;7.72;;
78929;SDS011;68329;47.664;9.356;2023-03-03T14:48:19;16.75;;;10.13;;
78929;SDS011;68329;47.664;9.356;2023-03-03T14:50:49;37.65;;;23.92;;
78929;SDS011;68329;47.664;9.356;2023-03-03T14:53:29;38.10;;;22.92;;
78929;SDS011;68329;47.664;9.356;2023-03-03T14:56:07;37.72;;;23.75;;
78929;SDS011;68329;47.664;9.356;2023-03-03T14:58:42;35.95;;;23.42;;
78929;SDS011;68329;47.664;9.356;2023-03-03T15:01:41;34.08;;;21.08;;
78929;SDS011;68329;47.664;9.356;2023-03-03T15:06:27;35.90;;;22.20;;
78929;SDS011;68329;47.664;9.356;2023-03-03T15:08:54;26.75;;;18.10;;
78929;SDS011;68329;47.664;9.356;2023-03-03T15:11:25;29.38;;;18.70;;
78929;SDS011;68329;47.664;9.356;2023-03-03T15:13:52;25.58;;;15.98;;
78929;SDS011;68329;47.664;9.356;2023-03-03T15:16:20;25.65;;;15.13;;
78929;SDS011;68329;47.664;9.356;2023-03-03T15:21:44;18.30;;;11.65;;
78929;SDS011;68329;47.664;9.356;2023-03-03T15:24:21;16.25;;;9.95;;
78929;SDS011;68329;47.664;9.356;2023-03-03T15:29:34;13.77;;;9.48;;
78929;SDS011;68329;47.664;9.356;2023-03-03T15:32:14;12.65;;;8.75;;
78929;SDS011;68329;47.664;9.356;2023-03-03T15:49:56;9.95;;;6.88;;
78929;SDS011;68329;47.664;9.356;2023-03-03T15:55:12;10.52;;;7.05;;
78929;SDS011;68329;47.664;9.356;2023-03-03T16:10:28;10.95;;;6.90;;
78929;SDS011;68329;47.664;9.356;2023-03-03T16:15:47;10.45;;;6.78;;
78929;SDS011;68329;47.664;9.356;2023-03-03T16:23:42;10.30;;;6.55;;
78929;SDS011;68329;47.664;9.356;2023-03-03T16:28:48;12.13;;;6.82;;
78929;SDS011;68329;47.664;9.356;2023-03-03T16:41:17;18.05;;;9.50;;
78929;SDS011;68329;47.664;9.356;2023-03-03T16:54:15;25.65;;;15.00;;
78929;SDS011;68329;47.664;9.356;2023-03-03T16:56:45;27.27;;;15.45;;
78929;SDS011;68329;47.664;9.356;2023-03-03T17:01:43;20.38;;;12.80;;
78929;SDS011;68329;47.664;9.356;2023-03-03T17:04:14;15.27;;;10.55;;
78929;SDS011;68329;47.664;9.356;2023-03-03T17:11:56;17.63;;;11.10;;
78929;SDS011;68329;47.664;9.356;2023-03-03T17:16:59;14.73;;;10.20;;
78929;SDS011;68329;47.664;9.356;2023-03-03T17:19:33;13.77;;;9.88;;
78929;SDS011;68329;47.664;9.356;2023-03-03T17:22:15;16.88;;;9.85;;
78929;SDS011;68329;47.664;9.356;2023-03-03T17:30:05;11.50;;;8.73;;
78929;SDS011;68329;47.664;9.356;2023-03-03T17:32:41;14.00;;;9.27;;
78929;SDS011;68329;47.664;9.356;2023-03-03T17:40:50;12.98;;;8.90;;
78929;SDS011;68329;47.664;9.356;2023-03-03T17:45:44;12.68;;;8.77;;
78929;SDS011;68329;47.664;9.356;2023-03-03T17:48:16;11.68;;;8.73;;
78929;SDS011;68329;47.664;9.356;2023-03-03T17:53:46;9.65;;;7.43;;
78929;SDS011;68329;47.664;9.356;2023-03-03T17:56:18;11.35;;;8.13;;
78929;SDS011;68329;47.664;9.356;2023-03-03T17:58:57;12.90;;;7.93;;
78929;SDS011;68329;47.664;9.356;2023-03-03T18:09:42;11.95;;;8.98;;
78929;SDS011;68329;47.664;9.356;2023-03-03T18:17:33;13.98;;;10.00;;
78929;SDS011;68329;47.664;9.356;2023-03-03T18:22:43;15.38;;;9.80;;
78929;SDS011;68329;47.664;9.356;2023-03-03T18:25:11;16.55;;;8.93;;
78929;SDS011;68329;47.664;9.356;2023-03-03T18:27:44;14.07;;;9.40;;
78929;SDS011;68329;47.664;9.356;2023-03-03T18:40:27;12.48;;;8.05;;
78929;SDS011;68329;47.664;9.356;2023-03-03T18:42:53;12.00;;;7.90;;
78929;SDS011;68329;47.664;9.356;2023-03-03T18:55:21;11.27;;;7.75;;
78929;SDS011;68329;47.664;9.356;2023-03-03T18:57:59;10.70;;;7.18;;
78929;SDS011;68329;47.664;9.356;2023-03-03T19:00:27;11.02;;;7.80;;
78929;SDS011;68329;47.664;9.356;2023-03-03T19:02:54;12.32;;;7.22;;
78929;SDS011;68329;47.664;9.356;2023-03-03T19:05:25;9.88;;;7.10;;
78929;SDS011;68329;47.664;9.356;2023-03-03T19:07:56;14.75;;;7.60;;
78929;SDS011;68329;47.664;9.356;2023-03-03T19:13:07;17.23;;;10.20;;
78929;SDS011;68329;47.664;9.356;2023-03-03T19:15:56;21.75;;;11.90;;
78929;SDS011;68329;47.664;9.356;2023-03-03T19:18:23;20.35;;;13.00;;
78929;SDS011;68329;47.664;9.356;2023-03-03T19:23:19;21.83;;;11.98;;
78929;SDS011;68329;47.664;9.356;2023-03-03T19:25:46;21.90;;;11.52;;
78929;SDS011;68329;47.664;9.356;2023-03-03T19:28:41;19.33;;;11.55;;
78929;SDS011;68329;47.664;9.356;2023-03-03T19:33:58;18.70;;;10.82;;
78929;SDS011;68329;47.664;9.356;2023-03-03T19:41:51;19.17;;;10.95;;
78929;SDS011;68329;47.664;9.356;2023-03-03T19:49:31;18.65;;;9.85;;
78929;SDS011;68329;47.664;9.356;2023-03-03T19:57:09;14.80;;;9.30;;
78929;SDS011;68329;47.664;9.356;2023-03-03T20:14:47;14.65;;;9.35;;
78929;SDS011;68329;47.664;9.356;2023-03-03T20:27:43;11.95;;;8.30;;
78929;SDS011;68329;47.664;9.356;2023-03-03T20:30:27;13.55;;;8.43;;
78929;SDS011;68329;47.664;9.356;2023-03-03T20:35:35;14.40;;;9.07;;
78929;SDS011;68329;47.664;9.356;2023-03-03T20:40:32;19.70;;;13.57;;
78929;SDS011;68329;47.664;9.356;2023-03-03T20:43:07;23.77;;;14.05;;
78929;SDS011;68329;47.664;9.356;2023-03-03T20:48:28;18.92;;;11.52;;
78929;SDS011;68329;47.664;9.356;2023-03-03T20:53:34;16.35;;;10.57;;
78929;SDS011;68329;47.664;9.356;2023-03-03T21:01:11;13.43;;;9.55;;
78929;SDS011;68329;47.664;9.356;2023-03-03T21:03:40;12.45;;;7.60;;
78929;SDS011;68329;47.664;9.356;2023-03-03T21:06:10;12.00;;;7.93;;
78929;SDS011;68329;47.664;9.356;2023-03-03T21:11:06;12.55;;;8.60;;
78929;SDS011;68329;47.664;9.356;2023-03-03T21:16:08;9.50;;;7.57;;
78929;SDS011;68329;47.664;9.356;2023-03-03T21:18:35;10.95;;;7.82;;
78929;SDS011;68329;47.664;9.356;2023-03-03T21:21:01;11.80;;;7.28;;
78929;SDS011;68329;47.664;9.356;2023-03-03T21:23:27;11.02;;;7.93;;
78929;SDS011;68329;47.664;9.356;2023-03-03T21:25:54;11.57;;;7.72;;
78929;SDS011;68329;47.664;9.356;2023-03-03T21:28:24;11.48;;;7.97;;
78929;SDS011;68329;47.664;9.356;2023-03-03T21:36:07;9.73;;;7.20;;
78929;SDS011;68329;47.664;9.356;2023-03-03T21:38:33;12.68;;;8.18;;
78929;SDS011;68329;47.664;9.356;2023-03-03T21:41:00;10.77;;;7.53;;
78929;SDS011;68329;47.664;9.356;2023-03-03T21:45:59;11.02;;;7.28;;
78929;SDS011;68329;47.664;9.356;2023-03-03T21:48:25;8.75;;;7.45;;
78929;SDS011;68329;47.664;9.356;2023-03-03T21:50:51;10.90;;;7.47;;
78929;SDS011;68329;47.664;9.356;2023-03-03T21:53:17;9.98;;;7.50;;
78929;SDS011;68329;47.664;9.356;2023-03-03T21:55:45;11.15;;;7.55;;
78929;SDS011;68329;47.664;9.356;2023-03-03T21:58:14;8.57;;;7.13;;
78929;SDS011;68329;47.664;9.356;2023-03-03T22:00:40;8.95;;;6.95;;
78929;SDS011;68329;47.664;9.356;2023-03-03T22:03:07;9.60;;;6.40;;
78929;SDS011;68329;47.664;9.356;2023-03-03T22:05:34;10.02;;;6.90;;